Time;durP1;ratioP1;P1;durP2;ratioP2;P2;SDS_P1;SDS_P2;PMS_P1;PMS_P2;Temp;Humidity;BMP_temperature;BMP_pressure;BME280_temperature;BME280_humidity;BME280_pressure;Samples;Min_cycle;Max_cycle;Signal;HPM_P1;HPM_P2
2022/09/07 00:00:32;;;;;;;20.98;2.63;;;23.40;53.90;;;;;;5054956;28;20029;-40
2022/09/07 00:02:58;;;;;;;16.42;2.72;;;23.10;56.60;;;;;;5055485;28;20033;-39
2022/09/07 00:05:23;;;;;;;19.63;3.28;;;22.70;59.30;;;;;;5054750;28;20052;-44
2022/09/07 00:07:49;;;;;;;14.68;2.35;;;22.30;61.50;;;;;;5054907;28;20359;-38
2022/09/07 00:10:15;;;;;;;21.73;2.08;;;22.10;63.00;;;;;;5054984;28;20503;-38
2022/09/07 00:12:41;;;;;;;11.05;1.52;;;21.90;64.00;;;;;;5055094;28;20496;-38
2022/09/07 00:15:09;;;;;;;8.45;1.60;;;21.70;65.70;;;;;;5055144;28;20025;-38
2022/09/07 00:17:35;;;;;;;9.45;1.30;;;21.40;67.90;;;;;;5053450;28;20504;-39
2022/09/07 00:20:02;;;;;;;5.88;1.55;;;21.20;69.80;;;;;;5055054;28;20028;-39
2022/09/07 00:22:28;;;;;;;3.55;1.42;;;20.90;71.60;;;;;;5053378;28;20049;-39
2022/09/07 00:24:53;;;;;;;3.55;1.40;;;20.80;72.20;;;;;;5055235;28;20512;-39
2022/09/07 00:27:19;;;;;;;5.00;1.27;;;20.80;73.20;;;;;;5055143;28;20500;-39
2022/09/07 00:29:45;;;;;;;6.78;1.58;;;20.40;75.40;;;;;;5054852;28;20020;-40
2022/09/07 00:32:10;;;;;;;6.88;1.05;;;20.10;77.70;;;;;;5054366;28;20028;-38
2022/09/07 00:34:36;;;;;;;2.78;1.52;;;20.00;79.50;;;;;;5054476;28;20075;-38
2022/09/07 00:37:02;;;;;;;2.17;1.35;;;19.90;80.40;;;;;;5054615;28;20075;-38
2022/09/07 00:39:27;;;;;;;0.80;0.80;;;19.60;81.30;;;;;;5054302;28;20028;-38
2022/09/07 00:41:53;;;;;;;3.53;1.40;;;19.40;82.30;;;;;;5054383;28;20032;-38
2022/09/07 00:44:37;;;;;;;4.07;1.60;;;19.40;82.40;;;;;;5054038;28;20032;-38
2022/09/07 00:47:05;;;;;;;1.30;1.20;;;19.30;83.60;;;;;;5054295;28;20032;-38
2022/09/07 00:49:32;;;;;;;1.65;1.00;;;19.20;83.60;;;;;;5054240;28;20052;-38
2022/09/07 00:52:02;;;;;;;1.88;0.90;;;19.30;83.90;;;;;;5054138;28;20013;-38
2022/09/07 00:54:39;;;;;;;3.83;1.20;;;19.20;84.10;;;;;;5036584;28;20028;-38
2022/09/07 00:57:05;;;;;;;1.40;1.23;;;19.10;84.50;;;;;;5054322;28;20033;-38
2022/09/07 00:59:41;;;;;;;3.20;2.00;;;19.10;84.90;;;;;;5053874;28;20504;-38
2022/09/07 01:02:07;;;;;;;5.82;1.50;;;19.10;85.60;;;;;;5053931;28;20029;-38
2022/09/07 01:04:34;;;;;;;4.90;2.42;;;19.00;86.00;;;;;;5053843;28;20384;-38
2022/09/07 01:07:01;;;;;;;3.80;1.95;;;19.00;87.00;;;;;;5053669;28;20017;-38
2022/09/07 01:09:28;;;;;;;6.82;2.45;;;18.70;87.30;;;;;;5053638;28;20103;-37
2022/09/07 01:11:58;;;;;;;5.20;1.98;;;18.60;88.30;;;;;;5053393;28;20017;-38
2022/09/07 01:14:35;;;;;;;5.77;2.00;;;18.40;88.80;;;;;;5054140;28;20025;-38
2022/09/07 01:17:41;;;;;;;8.60;2.55;;;18.30;88.70;;;;;;5053398;28;20603;-38
2022/09/07 01:20:48;;;;;;;6.32;2.70;;;18.30;89.30;;;;;;5053631;28;20048;-38
2022/09/07 01:23:35;;;;;;;5.90;2.25;;;18.30;89.70;;;;;;5053361;28;20052;-38
2022/09/07 01:26:38;;;;;;;4.18;2.10;;;18.20;89.50;;;;;;5053101;28;20067;-37
2022/09/07 01:29:28;;;;;;;7.00;2.38;;;18.10;89.90;;;;;;5053537;28;20377;-37
2022/09/07 01:32:01;;;;;;;;;;;18.10;90.10;;;;;;5053540;28;20028;-38
2022/09/07 01:34:27;;;;;;;11.05;2.75;;;18.00;90.40;;;;;;5052896;28;19905;-38
2022/09/07 01:37:21;;;;;;;7.00;3.90;;;18.10;90.40;;;;;;5053583;28;20032;-49
2022/09/07 01:39:55;;;;;;;5.80;2.40;;;18.00;90.40;;;;;;5053530;28;20021;-48
2022/09/07 01:42:28;;;;;;;5.88;2.60;;;18.00;90.60;;;;;;5053443;28;20366;-48
2022/09/07 01:44:59;;;;;;;10.05;3.72;;;17.90;90.80;;;;;;5053131;28;20021;-47
2022/09/07 01:47:37;;;;;;;4.53;2.15;;;17.90;90.90;;;;;;5053271;28;20351;-48
2022/09/07 01:50:40;;;;;;;7.35;2.90;;;17.90;91.00;;;;;;5053235;28;20104;-47
2022/09/07 01:53:25;;;;;;;6.35;2.70;;;18.00;91.10;;;;;;5052879;28;20029;-48
2022/09/07 01:56:02;;;;;;;6.40;2.67;;;18.00;91.00;;;;;;5053172;28;20021;-47
2022/09/07 01:58:42;;;;;;;4.43;2.08;;;18.00;91.20;;;;;;5052871;28;20025;-47
2022/09/07 02:01:12;;;;;;;4.85;1.90;;;17.90;91.00;;;;;;5052876;28;20051;-46
2022/09/07 02:04:14;;;;;;;6.20;2.53;;;18.00;91.00;;;;;;5053008;28;20519;-46
2022/09/07 02:06:40;;;;;;;5.82;2.35;;;18.00;91.10;;;;;;5052215;28;20075;-48
2022/09/07 02:09:14;;;;;;;6.57;2.00;;;18.00;90.90;;;;;;5052665;28;20412;-49
2022/09/07 02:11:46;;;;;;;3.22;1.90;;;18.10;90.90;;;;;;5053022;28;20043;-49
2022/09/07 02:14:28;;;;;;;7.25;2.30;;;18.00;90.70;;;;;;5052600;28;20022;-49
2022/09/07 02:17:15;;;;;;;5.80;2.35;;;18.00;90.70;;;;;;5052731;28;20057;-48
2022/09/07 02:19:49;;;;;;;2.17;1.67;;;17.90;90.70;;;;;;5051260;28;20028;-47
2022/09/07 02:22:21;;;;;;;4.25;1.85;;;18.00;90.80;;;;;;5052850;28;20191;-48
2022/09/07 02:24:51;;;;;;;3.63;1.77;;;18.00;91.00;;;;;;5051084;28;20128;-49
2022/09/07 02:27:23;;;;;;;5.63;2.65;;;18.00;91.00;;;;;;5052460;28;20108;-51
2022/09/07 02:29:50;;;;;;;2.33;1.83;;;18.10;90.90;;;;;;5053017;28;20350;-48
2022/09/07 02:32:17;;;;;;;5.07;2.42;;;18.00;90.80;;;;;;5052955;28;20123;-48
2022/09/07 02:34:43;;;;;;;4.80;1.65;;;18.10;90.70;;;;;;5052170;28;20029;-48
2022/09/07 02:37:09;;;;;;;6.05;2.67;;;18.00;90.50;;;;;;5052509;28;20436;-47
2022/09/07 02:39:35;;;;;;;3.55;2.13;;;17.90;90.60;;;;;;5052712;28;20111;-48
2022/09/07 02:42:01;;;;;;;3.65;1.63;;;17.90;90.70;;;;;;5052134;28;20116;-48
2022/09/07 02:44:33;;;;;;;7.22;2.00;;;17.80;90.90;;;;;;5053042;28;20029;-49
2022/09/07 02:47:32;;;;;;;4.45;1.92;;;17.80;91.20;;;;;;5056788;28;20029;-48
2022/09/07 02:50:35;;;;;;;5.78;2.15;;;17.80;91.40;;;;;;5056487;28;20051;-49
2022/09/07 02:53:21;;;;;;;4.72;1.75;;;17.80;91.40;;;;;;5056748;28;20373;-47
2022/09/07 02:56:11;;;;;;;4.28;1.50;;;17.70;91.40;;;;;;5056484;28;20028;-48
2022/09/07 02:58:42;;;;;;;3.13;1.55;;;17.60;91.20;;;;;;5056466;28;20036;-52
2022/09/07 03:01:49;;;;;;;6.25;2.80;;;17.60;91.30;;;;;;5056690;28;20469;-48
2022/09/07 03:04:36;;;;;;;5.57;1.30;;;17.60;91.40;;;;;;5055448;28;20033;-47
2022/09/07 03:07:12;;;;;;;2.45;1.33;;;17.50;91.40;;;;;;5056016;28;20477;-49
2022/09/07 03:09:42;;;;;;;3.03;1.67;;;17.50;91.50;;;;;;5054620;28;20029;-47
2022/09/07 03:12:09;;;;;;;2.75;1.42;;;17.60;91.60;;;;;;5055908;28;20025;-47
2022/09/07 03:14:39;;;;;;;3.50;1.95;;;17.60;91.70;;;;;;5055992;28;20537;-47
2022/09/07 03:17:04;;;;;;;3.50;1.77;;;17.70;91.80;;;;;;5056113;28;20025;-50
2022/09/07 03:19:30;;;;;;;1.45;1.35;;;17.70;91.80;;;;;;5055507;28;20518;-47
2022/09/07 03:21:56;;;;;;;4.10;2.17;;;17.70;91.80;;;;;;5056051;28;20075;-47
2022/09/07 03:24:21;;;;;;;6.22;2.03;;;17.80;91.80;;;;;;5055495;28;20041;-47
2022/09/07 03:26:47;;;;;;;1.88;1.27;;;17.70;91.80;;;;;;5055505;28;20017;-47
2022/09/07 03:29:14;;;;;;;3.15;1.40;;;17.70;91.70;;;;;;5055709;28;20108;-47
2022/09/07 03:31:39;;;;;;;2.78;1.73;;;17.60;91.60;;;;;;5055432;28;20475;-49
2022/09/07 03:34:06;;;;;;;3.95;2.10;;;17.60;91.60;;;;;;5055652;28;20053;-48
2022/09/07 03:36:32;;;;;;;4.13;1.90;;;17.50;91.60;;;;;;5055349;28;20102;-49
2022/09/07 03:38:58;;;;;;;4.82;2.47;;;17.50;91.70;;;;;;5056139;28;20029;-48
2022/09/07 03:41:25;;;;;;;4.82;2.13;;;17.50;91.70;;;;;;5055233;28;20025;-47
2022/09/07 03:43:51;;;;;;;4.28;2.70;;;17.40;91.70;;;;;;5055388;28;20032;-51
2022/09/07 03:46:18;;;;;;;6.05;2.05;;;17.30;91.70;;;;;;5055681;28;20060;-48
2022/09/07 03:48:45;;;;;;;7.07;2.05;;;17.40;91.80;;;;;;5055447;28;20049;-47
2022/09/07 03:51:11;;;;;;;2.90;1.85;;;17.30;91.80;;;;;;5055512;28;20462;-48
2022/09/07 03:53:40;;;;;;;4.75;2.20;;;17.40;91.80;;;;;;5055323;28;20421;-47
2022/09/07 03:56:08;;;;;;;3.75;2.45;;;17.40;91.70;;;;;;5054393;28;20033;-49
2022/09/07 03:58:34;;;;;;;3.25;2.35;;;17.30;91.70;;;;;;5054923;28;20063;-50
2022/09/07 04:01:23;;;;;;;4.63;2.88;;;17.40;91.80;;;;;;5054959;28;20033;-48
2022/09/07 04:03:49;;;;;;;6.13;2.90;;;17.30;91.80;;;;;;5053784;28;20112;-48
2022/09/07 04:06:16;;;;;;;5.70;3.75;;;17.40;91.80;;;;;;5054899;28;20099;-51
2022/09/07 04:08:42;;;;;;;5.43;3.40;;;17.40;91.80;;;;;;5053589;28;20373;-48
2022/09/07 04:11:12;;;;;;;4.30;2.70;;;17.40;91.80;;;;;;5054430;28;20029;-47
2022/09/07 04:13:38;;;;;;;6.25;3.78;;;17.40;91.80;;;;;;5055027;28;20048;-50
2022/09/07 04:16:13;;;;;;;7.05;4.07;;;17.30;92.00;;;;;;5053516;28;20064;-48
2022/09/07 04:18:39;;;;;;;6.47;3.28;;;17.30;92.00;;;;;;5053230;28;20063;-48
2022/09/07 04:21:05;;;;;;;6.65;3.47;;;17.30;92.00;;;;;;5054752;28;20082;-51
2022/09/07 04:23:30;;;;;;;9.52;4.43;;;17.30;91.80;;;;;;5054624;28;20115;-49
2022/09/07 04:25:56;;;;;;;5.25;4.75;;;17.30;91.90;;;;;;5054692;28;20063;-47
2022/09/07 04:28:22;;;;;;;11.20;4.20;;;17.30;91.80;;;;;;5054667;28;20021;-47
2022/09/07 04:30:47;;;;;;;5.40;3.85;;;17.30;91.80;;;;;;5054722;28;20400;-47
2022/09/07 04:33:14;;;;;;;8.75;4.88;;;17.30;91.70;;;;;;5054796;28;20215;-48
2022/09/07 04:35:41;;;;;;;8.43;4.47;;;17.30;91.70;;;;;;5054500;28;20029;-49
2022/09/07 04:38:11;;;;;;;7.63;4.97;;;17.30;91.80;;;;;;5054393;28;20029;-47
2022/09/07 18:23:18;;;;;;;5.72;1.77;;;22.30;60.30;;;;;;5071330;28;20961;-47
2022/09/07 18:25:45;;;;;;;13.02;2.80;;;22.30;61.50;;;;;;5071391;28;20029;-48
2022/09/07 18:28:10;;;;;;;6.43;2.92;;;22.30;62.60;;;;;;5071311;28;20493;-49
2022/09/07 18:30:38;;;;;;;8.15;3.08;;;22.20;61.50;;;;;;5069352;28;20028;-47
2022/09/07 18:33:04;;;;;;;7.03;3.05;;;22.10;61.30;;;;;;5071217;28;20029;-48
2022/09/07 18:35:30;;;;;;;3.55;1.90;;;22.10;61.60;;;;;;5069131;28;20423;-48
2022/09/07 18:37:57;;;;;;;7.75;2.75;;;22.10;62.00;;;;;;5069010;28;20039;-47
2022/09/07 18:40:23;;;;;;;7.65;2.15;;;22.10;62.30;;;;;;5070440;28;20040;-49
2022/09/07 18:42:48;;;;;;;6.40;2.65;;;22.00;62.70;;;;;;5070314;28;20083;-47
2022/09/07 18:45:14;;;;;;;4.00;1.80;;;22.00;63.00;;;;;;5070305;28;20025;-47
2022/09/07 18:47:42;;;;;;;6.25;2.10;;;21.90;63.40;;;;;;5068549;28;20068;-47
2022/09/07 18:50:08;;;;;;;4.18;1.70;;;21.80;64.20;;;;;;5069891;28;20025;-49
2022/09/07 18:52:34;;;;;;;4.25;1.83;;;21.80;64.90;;;;;;5071438;28;20029;-42
2022/09/07 18:55:00;;;;;;;4.25;2.78;;;21.80;65.30;;;;;;5070294;28;20020;-39
2022/09/07 18:57:26;;;;;;;5.07;2.00;;;21.70;65.40;;;;;;5068222;28;20078;-39
2022/09/07 18:59:52;;;;;;;11.23;4.63;;;21.60;66.20;;;;;;5069763;28;20491;-39
2022/09/07 19:02:17;;;;;;;9.70;3.10;;;21.50;66.80;;;;;;5069668;28;20078;-39
2022/09/07 19:04:44;;;;;;;5.18;2.65;;;21.50;67.60;;;;;;5069910;28;20139;-38
2022/09/07 19:07:11;;;;;;;8.88;2.83;;;21.40;68.20;;;;;;5068327;28;20025;-38
2022/09/07 19:09:37;;;;;;;3.42;2.60;;;21.30;68.80;;;;;;5069824;28;20032;-38
2022/09/07 19:12:04;;;;;;;5.63;2.50;;;21.30;69.70;;;;;;5069543;28;20123;-39
2022/09/07 19:14:30;;;;;;;14.45;6.85;;;21.30;70.10;;;;;;5069144;28;20029;-40
2022/09/07 19:16:56;;;;;;;6.97;3.60;;;21.10;70.80;;;;;;5069088;28;20029;-38
2022/09/07 19:19:25;;;;;;;5.43;2.85;;;21.10;70.60;;;;;;5068394;28;20074;-39
2022/09/07 19:21:53;;;;;;;8.18;2.33;;;21.00;71.20;;;;;;5067871;28;20048;-39
2022/09/07 19:24:18;;;;;;;6.75;2.95;;;20.80;71.50;;;;;;5068834;28;20031;-39
2022/09/07 19:26:47;;;;;;;7.72;3.30;;;20.90;71.40;;;;;;5069503;28;20100;-38
2022/09/07 19:29:18;;;;;;;5.72;2.40;;;20.90;71.40;;;;;;5069369;28;20074;-39
2022/09/07 19:32:02;;;;;;;3.97;2.63;;;20.80;71.90;;;;;;5068337;28;20032;-47
2022/09/07 19:34:40;;;;;;;7.20;2.95;;;20.80;72.10;;;;;;5056712;28;20039;-47
2022/09/07 19:37:08;;;;;;;4.50;2.67;;;20.80;72.10;;;;;;5055959;28;20028;-50
2022/09/07 19:39:34;;;;;;;14.32;4.43;;;20.70;72.10;;;;;;5055965;28;20032;-48
2022/09/07 19:42:01;;;;;;;5.20;2.95;;;20.70;72.20;;;;;;5055809;28;20033;-46
2022/09/07 19:44:26;;;;;;;7.10;2.92;;;20.60;72.60;;;;;;5055807;28;20024;-47
2022/09/07 19:46:52;;;;;;;4.75;2.17;;;20.50;73.10;;;;;;5055732;28;20021;-48
2022/09/07 19:49:18;;;;;;;5.45;2.28;;;20.40;73.20;;;;;;5054076;28;20437;-47
2022/09/07 19:51:44;;;;;;;5.20;2.58;;;20.30;72.40;;;;;;5055370;28;20484;-38
2022/09/07 19:54:11;;;;;;;3.88;2.30;;;20.30;72.50;;;;;;5055335;28;20025;-38
2022/09/07 19:56:38;;;;;;;7.90;2.78;;;20.30;72.80;;;;;;5055807;28;20104;-39
2022/09/07 19:59:05;;;;;;;9.30;2.65;;;20.30;72.80;;;;;;5055305;28;20033;-40
2022/09/07 20:01:31;;;;;;;4.85;2.95;;;20.30;72.90;;;;;;5053877;28;20067;-41
2022/09/07 20:03:57;;;;;;;5.53;2.58;;;20.30;73.00;;;;;;5055665;28;20025;-38
2022/09/07 20:06:24;;;;;;;5.45;2.40;;;20.30;73.60;;;;;;5055314;28;20032;-39
2022/09/07 20:08:50;;;;;;;9.48;2.95;;;20.30;73.90;;;;;;5054872;28;20036;-40
2022/09/07 20:11:17;;;;;;;8.00;3.70;;;20.30;74.00;;;;;;5054973;28;20029;-38
2022/09/07 20:13:43;;;;;;;6.57;2.78;;;20.30;74.20;;;;;;5053826;28;20082;-39
2022/09/07 20:16:17;;;;;;;5.70;2.90;;;20.20;74.60;;;;;;5055055;28;20029;-38
2022/09/07 20:18:44;;;;;;;8.82;3.92;;;20.10;74.90;;;;;;5054585;28;20025;-38
2022/09/07 20:21:12;;;;;;;8.15;2.72;;;20.00;75.20;;;;;;5053257;28;20366;-39
2022/09/07 20:23:39;;;;;;;8.43;3.22;;;20.00;75.40;;;;;;5054683;28;20108;-40
2022/09/07 20:26:07;;;;;;;9.88;4.22;;;19.90;75.80;;;;;;5054440;28;20036;-38
2022/09/07 20:28:34;;;;;;;12.27;3.78;;;19.90;75.90;;;;;;5054429;28;20024;-38
2022/09/07 20:31:04;;;;;;;11.35;3.45;;;19.80;76.10;;;;;;5054870;28;20028;-39
2022/09/07 20:33:31;;;;;;;3.47;2.33;;;19.80;76.20;;;;;;5054811;28;20462;-38
2022/09/07 20:36:02;;;;;;;6.22;2.60;;;19.80;76.10;;;;;;5054362;28;20029;-40
2022/09/07 20:38:28;;;;;;;12.52;3.60;;;19.70;76.00;;;;;;5054628;28;20021;-39
2022/09/07 20:40:56;;;;;;;5.00;2.95;;;19.70;75.80;;;;;;5054244;28;20445;-39
2022/09/07 20:43:23;;;;;;;6.05;3.42;;;19.70;75.90;;;;;;5054335;28;20047;-38
2022/09/07 20:45:49;;;;;;;4.25;2.45;;;19.60;76.20;;;;;;5053064;28;20028;-42
2022/09/07 20:48:15;;;;;;;6.47;2.33;;;19.60;76.50;;;;;;5054314;28;20025;-39
2022/09/07 20:50:41;;;;;;;6.82;2.78;;;19.50;76.70;;;;;;5054181;28;20350;-40
2022/09/07 20:53:06;;;;;;;5.00;2.70;;;19.50;76.80;;;;;;5054284;28;20025;-39
2022/09/07 20:55:34;;;;;;;5.85;2.47;;;19.40;76.90;;;;;;5054696;28;20029;-40
2022/09/07 20:58:01;;;;;;;8.57;2.50;;;19.40;77.10;;;;;;5054094;28;20095;-39
2022/09/07 21:00:27;;;;;;;6.75;2.75;;;19.40;77.00;;;;;;5053151;28;20491;-38
2022/09/07 21:02:53;;;;;;;6.20;2.50;;;19.30;77.10;;;;;;5054216;28;20055;-40
2022/09/07 21:05:21;;;;;;;6.95;2.95;;;19.30;77.10;;;;;;5053139;28;20093;-38
2022/09/07 21:07:47;;;;;;;9.40;2.55;;;19.30;77.10;;;;;;5054328;28;20507;-38
2022/09/07 21:10:13;;;;;;;7.93;2.80;;;19.30;76.90;;;;;;5052734;28;20111;-38
2022/09/07 21:12:39;;;;;;;5.72;2.47;;;19.30;76.80;;;;;;5054656;28;20029;-40
2022/09/07 21:15:05;;;;;;;6.78;2.97;;;19.30;76.80;;;;;;5054113;28;20029;-40
2022/09/07 21:17:31;;;;;;;10.60;2.80;;;19.30;76.70;;;;;;5053597;28;20394;-40
2022/09/07 21:19:56;;;;;;;5.78;2.75;;;19.30;77.10;;;;;;5053866;28;20021;-38
2022/09/07 21:22:22;;;;;;;6.50;2.70;;;19.30;77.10;;;;;;5053840;28;20436;-40
2022/09/07 21:24:48;;;;;;;5.47;2.97;;;19.30;77.10;;;;;;5053731;28;20486;-38
2022/09/07 21:27:13;;;;;;;6.30;2.97;;;19.20;76.80;;;;;;5053610;28;20103;-39
2022/09/07 21:29:39;;;;;;;6.55;2.92;;;19.20;76.90;;;;;;5053454;28;20028;-38
2022/09/07 21:32:04;;;;;;;3.75;2.78;;;19.20;77.10;;;;;;5053527;28;20036;-39
2022/09/07 21:34:30;;;;;;;6.72;2.80;;;19.20;77.00;;;;;;5052006;28;20375;-38
2022/09/07 21:36:56;;;;;;;3.83;2.92;;;19.10;77.20;;;;;;5053438;28;20110;-38
2022/09/07 21:39:21;;;;;;;5.68;3.45;;;19.10;77.40;;;;;;5053380;28;20114;-40
2022/09/07 21:41:47;;;;;;;5.57;2.90;;;19.00;77.60;;;;;;5052940;28;20047;-43
2022/09/07 21:44:15;;;;;;;5.35;3.17;;;19.00;78.00;;;;;;5053140;28;20017;-38
2022/09/07 21:46:41;;;;;;;7.38;3.08;;;19.00;78.00;;;;;;5053081;28;20028;-38
2022/09/07 21:49:07;;;;;;;8.80;4.53;;;19.00;78.10;;;;;;5053809;28;20030;-37
2022/09/07 21:51:34;;;;;;;6.63;3.65;;;19.00;78.50;;;;;;5053122;28;20384;-40
2022/09/07 21:54:00;;;;;;;5.40;3.63;;;19.00;78.50;;;;;;5053065;28;20043;-38
2022/09/07 21:56:30;;;;;;;7.65;4.03;;;19.00;78.40;;;;;;5051911;28;20429;-38
2022/09/07 21:58:58;;;;;;;7.82;4.00;;;19.00;78.30;;;;;;5051674;28;20041;-39
2022/09/07 22:04:10;;;;;;;9.07;4.10;;;19.10;78.50;;;;;;5053261;28;20451;-39
2022/09/07 22:06:36;;;;;;;4.32;3.58;;;19.10;78.70;;;;;;5052923;28;20084;-39
2022/09/07 22:09:03;;;;;;;6.65;4.60;;;19.10;78.80;;;;;;5052903;28;20033;-39
2022/09/07 22:11:29;;;;;;;7.35;4.43;;;19.00;79.00;;;;;;5051378;28;20029;-38
2022/09/07 22:14:01;;;;;;;9.27;5.25;;;19.00;79.10;;;;;;5052630;28;20074;-37
2022/09/07 22:16:27;;;;;;;12.48;7.38;;;19.00;79.20;;;;;;5053112;28;20025;-40
2022/09/07 22:18:53;;;;;;;8.13;4.50;;;19.00;79.50;;;;;;5053424;28;20039;-39
2022/09/07 22:21:21;;;;;;;10.02;4.80;;;18.90;79.60;;;;;;5051041;28;20049;-39
2022/09/07 22:23:51;;;;;;;6.63;4.70;;;18.90;79.60;;;;;;5052485;28;20087;-39
2022/09/07 22:26:19;;;;;;;6.63;4.43;;;18.90;79.80;;;;;;5051335;28;20025;-37
2022/09/07 22:28:45;;;;;;;10.25;6.00;;;18.90;80.00;;;;;;5052736;28;20289;-39
2022/09/07 22:31:15;;;;;;;9.30;5.97;;;18.90;80.00;;;;;;5052590;28;20381;-38
2022/09/07 22:33:42;;;;;;;8.93;5.80;;;18.90;80.10;;;;;;5052541;28;20017;-38
2022/09/07 22:36:13;;;;;;;8.45;6.00;;;18.90;80.10;;;;;;5052489;28;20025;-39
2022/09/07 22:38:39;;;;;;;11.30;7.65;;;18.90;80.20;;;;;;5051551;28;20029;-39
2022/09/07 22:41:07;;;;;;;9.57;5.55;;;18.90;80.30;;;;;;5052484;28;20537;-37
2022/09/07 22:43:33;;;;;;;7.47;5.38;;;19.00;80.10;;;;;;5051892;28;20491;-38
2022/09/07 22:46:01;;;;;;;10.40;5.00;;;18.90;80.20;;;;;;5052456;28;20052;-38
2022/09/07 22:48:27;;;;;;;9.38;6.68;;;18.80;80.50;;;;;;5052779;28;20072;-37
2022/09/07 22:50:57;;;;;;;11.90;5.95;;;18.80;80.60;;;;;;5051030;28;20049;-39
2022/09/07 22:53:24;;;;;;;9.75;5.47;;;18.80;81.00;;;;;;5052578;28;20025;-38
2022/09/07 22:55:51;;;;;;;11.27;6.00;;;18.70;81.00;;;;;;5052444;28;20028;-38
2022/09/07 22:58:17;;;;;;;8.50;6.60;;;18.80;81.20;;;;;;5052077;28;20445;-37
2022/09/07 23:00:43;;;;;;;12.05;6.47;;;18.80;81.20;;;;;;5052513;28;20070;-38
2022/09/07 23:03:09;;;;;;;11.48;7.25;;;18.80;81.20;;;;;;5052703;28;20032;-38
2022/09/07 23:05:36;;;;;;;9.07;7.20;;;18.80;81.40;;;;;;5052340;28;20020;-38
2022/09/07 23:08:02;;;;;;;12.70;6.95;;;18.80;81.30;;;;;;5052802;28;20026;-40
2022/09/07 23:10:27;;;;;;;11.93;8.98;;;18.80;81.40;;;;;;5056180;28;20031;-38
2022/09/07 23:12:53;;;;;;;11.85;9.18;;;18.80;81.50;;;;;;5054718;28;20079;-38
2022/09/07 23:15:18;;;;;;;17.67;11.38;;;18.80;81.50;;;;;;5056297;28;20109;-40
2022/09/07 23:17:44;;;;;;;16.30;9.82;;;18.80;81.40;;;;;;5055858;28;20036;-39
2022/09/07 23:20:10;;;;;;;15.65;11.02;;;18.90;81.50;;;;;;5056167;28;20449;-40
2022/09/07 23:22:36;;;;;;;19.80;11.77;;;19.00;81.50;;;;;;5055764;28;20041;-38
2022/09/07 23:25:03;;;;;;;16.02;12.50;;;19.10;81.30;;;;;;5056381;28;20025;-39
2022/09/07 23:27:29;;;;;;;15.63;11.77;;;19.00;81.20;;;;;;5056346;28;20103;-44
2022/09/07 23:29:54;;;;;;;16.33;14.25;;;19.00;81.40;;;;;;5055800;28;20193;-40
2022/09/07 23:32:20;;;;;;;15.98;12.45;;;19.00;81.60;;;;;;5056351;28;20029;-38
2022/09/07 23:34:46;;;;;;;19.33;14.50;;;18.90;81.80;;;;;;5056033;28;20342;-38
2022/09/07 23:37:12;;;;;;;20.58;15.95;;;18.90;81.90;;;;;;5056176;28;20032;-39
2022/09/07 23:39:39;;;;;;;26.48;14.85;;;18.90;82.10;;;;;;5055952;28;20025;-39
2022/09/07 23:42:05;;;;;;;23.60;14.68;;;18.90;82.10;;;;;;5055631;28;20025;-38
2022/09/07 23:44:30;;;;;;;21.63;17.02;;;18.90;82.30;;;;;;5056002;28;20546;-39
2022/09/07 23:46:56;;;;;;;23.45;16.60;;;19.00;82.10;;;;;;5056106;28;20032;-38
2022/09/07 23:49:21;;;;;;;23.92;15.32;;;19.00;82.00;;;;;;5055389;28;20055;-38
2022/09/07 23:51:47;;;;;;;20.92;15.40;;;19.10;81.90;;;;;;5055470;28;20025;-38
2022/09/07 23:54:13;;;;;;;23.88;17.33;;;19.10;82.10;;;;;;5055626;28;20025;-38
2022/09/07 23:56:38;;;;;;;24.35;17.65;;;19.10;81.90;;;;;;5055684;28;20469;-39
2022/09/07 23:59:05;;;;;;;25.00;16.98;;;19.10;81.90;;;;;;5054085;28;20083;-39
